< Cyclone 199101 1991 Season Cyclone 199103 >
Cyclone 199102 (JOY)
General InformationDetailed Track InformationTrack Information on Google MapsList of All Images || ResourceGoogle EarthGE AnimationAtom FeedGeoJSON
Detalied Best Track Wind (Time Zone = UTC)
Year Month Day Hour Lat. Long. Wind (kt) Gust (kt) Direc. of Major Storm Axis Radius of Major Storm Axis (nm) Radius of Minor Storm Axis (nm) Direc. of Major Gale Axis Radius of Major Gale Axis (nm) Radius of Minor Gale Axis (nm) Image
1990 12 18 00 -11.4 158.0 35 -1 symmetric - - symmetric - - Image
1990 12 18 06 -12.0 157.2 35 -1 symmetric - - symmetric - - Image
1990 12 18 12 -12.6 156.3 35 -1 symmetric - - symmetric - - Image
1990 12 18 18 -13.0 155.1 35 -1 symmetric - - symmetric - - Image
1990 12 19 00 -12.2 153.3 35 -1 symmetric - - symmetric - - Image
1990 12 19 06 -12.2 152.7 41 -1 symmetric - - symmetric - - Image
1990 12 19 12 -12.4 152.5 41 -1 symmetric - - symmetric - - Image
1990 12 19 18 -12.4 151.6 41 -1 symmetric - - symmetric - - Image
1990 12 20 00 -12.4 151.0 51 -1 symmetric - - symmetric - - Image
1990 12 20 06 -12.5 150.6 60 -1 symmetric - - symmetric - - Image
1990 12 20 12 -12.7 150.1 60 -1 symmetric - - symmetric - - Image
1990 12 20 18 -12.9 149.6 60 -1 symmetric - - symmetric - - Image
1990 12 21 00 -13.2 149.1 60 -1 symmetric - - symmetric - - Image
1990 12 21 06 -13.7 148.8 66 -1 symmetric - - symmetric - - Image
1990 12 21 12 -14.2 148.4 70 -1 symmetric - - symmetric - - Image
1990 12 21 18 -14.5 148.1 70 -1 symmetric - - symmetric - - Image
1990 12 22 00 -14.9 147.6 76 -1 symmetric - - symmetric - - Image
1990 12 22 06 -15.1 147.4 80 -1 symmetric - - symmetric - - Image
1990 12 22 12 -15.4 147.2 86 -1 symmetric - - symmetric - - Image
1990 12 22 18 -15.9 146.9 86 -1 symmetric - - symmetric - - Image
1990 12 23 00 -15.9 146.7 89 -1 symmetric - - symmetric - - Image
1990 12 23 06 -16.2 146.7 89 -1 symmetric - - symmetric - - Image
1990 12 23 12 -16.1 146.6 89 -1 symmetric - - symmetric - - Image
1990 12 23 18 -16.2 146.8 89 -1 symmetric - - symmetric - - Image
1990 12 24 00 -16.6 146.7 86 -1 symmetric - - symmetric - - Image
1990 12 24 06 -16.6 146.9 86 -1 symmetric - - symmetric - - Image
1990 12 24 12 -16.6 147.2 76 -1 symmetric - - symmetric - - Image
1990 12 24 18 -16.8 147.2 66 -1 symmetric - - symmetric - - Image
1990 12 25 00 -16.9 147.5 54 -1 symmetric - - symmetric - - Image
1990 12 25 06 -17.1 147.8 54 -1 symmetric - - symmetric - - Image
1990 12 25 12 -17.2 147.9 54 -1 symmetric - - symmetric - - Image
1990 12 25 18 -17.7 147.9 54 -1 symmetric - - symmetric - - Image
1990 12 26 00 -18.2 147.9 51 -1 symmetric - - symmetric - - Image
1990 12 26 06 -19.2 147.6 46 -1 symmetric - - symmetric - - Image
1990 12 26 12 -19.1 147.1 41 -1 symmetric - - symmetric - - Image
1990 12 26 18 -19.2 146.6 41 -1 symmetric - - symmetric - - Image
1990 12 27 01 -19.9 146.7 33 -1 symmetric - - symmetric - - Image
< Cyclone 199101 1991 Season Cyclone 199103 >

Help